This is the latest recevied weather packets stored in our database for station/object N0ZJT. If no packets are shown the sender has not sent any weather packets the latest 10 day(s).
| Time | Temp. | Humidity | Pressure | Rain* | Wind** | Luminosity | Snow |
|---|---|---|---|---|---|---|---|
| 1777661930 | 11.67° C | 51% | 978.8 hPa | 0 mm | - | - | - |
| 1777661090 | 11.11° C | 54% | 978.7 hPa | 0 mm | - | - | - |
| 1777660130 | 11.11° C | 51% | 978.5 hPa | 0 mm | - | - | - |
| 1777659290 | 11.67° C | 49% | 978.3 hPa | 0 mm | - | - | - |
| 1777658330 | 11.11° C | 51% | 978.8 hPa | 0 mm | - | - | - |
| 1777657490 | 11.11° C | 51% | 978.7 hPa | 0 mm | - | - | - |
| 1777656530 | 11.11° C | 50% | 978.8 hPa | 0 mm | - | - | - |
| 1777655942 | 11.67° C | 47% | 978.7 hPa | 0 mm | - | - | - |
| 1777655690 | 11.67° C | 47% | 978.7 hPa | 0 mm | - | - | - |
| 1777654730 | 11.67° C | 50% | 978.8 hPa | 0 mm | - | - | - |
| 1777653890 | 11.67° C | 51% | 978.7 hPa | 0 mm | - | - | - |
| 1777652930 | 12.22° C | 49% | 978.4 hPa | 0 mm | - | - | - |
| 1777652090 | 11.67° C | 53% | 978.7 hPa | 0 mm | - | - | - |
| 1777651130 | 10.56° C | 56% | 978.7 hPa | 0 mm | - | - | - |
| 1777650290 | 10.56° C | 56% | 978.6 hPa | 0 mm | - | - | - |
| 1777649582 | 10° C | 58% | 978.8 hPa | 0 mm | - | - | - |
| 1777649330 | 10° C | 58% | 978.8 hPa | 0 mm | - | - | - |
| 1777648740 | 9.44° C | 59% | 978.8 hPa | 0 mm | - | - | - |
| 1777648490 | 9.44° C | 59% | 978.8 hPa | 0 mm | - | - | - |
| 1777647530 | 9.44° C | 60% | 979.1 hPa | 0 mm | - | - | - |
| 1777646690 | 8.89° C | 62% | 979 hPa | 0 mm | - | - | - |
| 1777645981 | 8.33° C | 64% | 979 hPa | 0 mm | - | - | - |
| 1777645730 | 8.33° C | 64% | 979 hPa | 0 mm | - | - | - |
| 1777644890 | 7.78° C | 64% | 979.1 hPa | 0 mm | - | - | - |
| 1777643930 | 7.78° C | 66% | 979 hPa | 0 mm | - | - | - |
* Rain latest hour (hover to see other rain measurements)
** Current wind speed in m/s (hover to see current wind gust speed)